createdAt,value
2019-05-19T00:00:45.022Z,3.90
2019-05-19T00:03:19.142Z,4.22
2019-05-19T00:05:48.003Z,3.22
2019-05-19T00:08:16.568Z,3.87
2019-05-19T00:10:50.036Z,3.75
2019-05-19T00:13:18.510Z,3.47
2019-05-19T00:15:47.009Z,3.80
2019-05-19T00:18:16.509Z,3.65
2019-05-19T00:20:45.430Z,3.80
2019-05-19T00:23:13.951Z,4.12
2019-05-19T00:25:42.355Z,4.03
2019-05-19T00:28:10.915Z,3.47
2019-05-19T00:30:40.358Z,3.80
2019-05-19T00:33:08.810Z,3.85
2019-05-19T00:35:37.315Z,3.92
2019-05-19T00:38:11.757Z,3.85
2019-05-19T00:40:40.358Z,4.03
2019-05-19T00:43:08.827Z,4.17
2019-05-19T00:45:37.321Z,4.62
2019-05-19T00:48:05.775Z,4.58
2019-05-19T00:50:35.296Z,4.37
2019-05-19T00:53:04.786Z,4.67
2019-05-19T00:55:35.263Z,4.30
2019-05-19T00:58:03.807Z,4.60
2019-05-19T01:00:32.284Z,5.15
2019-05-19T01:03:06.073Z,4.35
2019-05-19T01:05:36.548Z,4.55
2019-05-19T01:08:11.854Z,4.57
2019-05-19T01:10:41.298Z,4.93
2019-05-19T01:13:09.749Z,5.15
2019-05-19T01:15:38.236Z,4.35
2019-05-19T01:18:06.712Z,4.17
2019-05-19T01:20:35.222Z,4.12
2019-05-19T01:23:03.944Z,4.67
2019-05-19T01:25:33.401Z,4.60
2019-05-19T01:28:01.879Z,4.70
2019-05-19T01:30:31.069Z,4.62
2019-05-19T01:32:59.812Z,4.97
2019-05-19T01:35:29.027Z,4.62
2019-05-19T01:37:57.447Z,4.40
2019-05-19T01:40:25.937Z,5.17
2019-05-19T01:42:54.452Z,5.05
2019-05-19T01:45:23.912Z,4.22
2019-05-19T01:47:52.437Z,3.90
2019-05-19T01:50:20.888Z,4.72
2019-05-19T01:52:49.766Z,5.62
2019-05-19T01:55:18.254Z,4.33
2019-05-19T01:57:46.731Z,5.12
2019-05-19T02:00:19.420Z,5.20
2019-05-19T02:02:48.193Z,5.17
2019-05-19T02:05:16.679Z,5.58
2019-05-19T02:07:45.213Z,4.85
2019-05-19T02:10:14.724Z,4.70
2019-05-19T02:12:43.214Z,4.90
2019-05-19T02:15:11.740Z,4.72
2019-05-19T02:17:40.229Z,5.00
2019-05-19T02:20:11.532Z,5.40
2019-05-19T02:22:40.245Z,4.97
2019-05-19T02:25:09.023Z,5.22
2019-05-19T02:27:39.497Z,4.75
2019-05-19T02:30:10.594Z,4.62
2019-05-19T02:32:39.397Z,4.95
2019-05-19T02:35:07.890Z,5.70
2019-05-19T02:37:39.571Z,5.60
2019-05-19T02:42:39.500Z,5.58
2019-05-19T02:45:08.268Z,5.23
2019-05-19T02:47:37.139Z,5.70
2019-05-19T02:50:06.691Z,6.55
2019-05-19T02:52:37.199Z,5.80
2019-05-19T02:55:13.569Z,6.00
2019-05-19T02:57:42.418Z,5.47
2019-05-19T03:00:10.927Z,5.60
2019-05-19T03:02:45.319Z,5.55
2019-05-19T03:05:13.878Z,6.35
2019-05-19T03:07:42.402Z,5.92
2019-05-19T03:10:10.830Z,7.28
2019-05-19T03:12:41.321Z,6.28
2019-05-19T03:15:09.821Z,6.43
2019-05-19T03:17:38.288Z,6.03
2019-05-19T03:20:06.788Z,6.37
2019-05-19T03:22:36.274Z,6.53
2019-05-19T03:25:04.998Z,6.47
2019-05-19T03:27:33.541Z,6.03
2019-05-19T03:30:21.126Z,6.45
2019-05-19T03:32:55.504Z,5.60
2019-05-19T03:35:23.994Z,6.47
2019-05-19T03:37:52.445Z,5.87
2019-05-19T03:40:20.884Z,5.92
2019-05-19T03:42:49.934Z,5.15
2019-05-19T03:45:18.466Z,5.12
2019-05-19T03:47:49.034Z,6.22
2019-05-19T03:50:18.813Z,5.80
2019-05-19T03:52:47.291Z,6.05
2019-05-19T03:55:15.774Z,5.90
2019-05-19T03:57:44.521Z,6.22
2019-05-19T04:00:13.525Z,6.67
2019-05-19T04:02:43.060Z,6.20
2019-05-19T04:05:11.528Z,6.35
2019-05-19T04:07:41.026Z,6.30
2019-05-19T04:10:09.820Z,6.30
2019-05-19T04:12:38.581Z,6.58
2019-05-19T04:15:09.033Z,6.10
2019-05-19T04:17:37.543Z,6.60
2019-05-19T04:20:07.107Z,6.95
2019-05-19T04:22:35.549Z,7.30
2019-05-19T04:25:04.100Z,7.28
2019-05-19T04:27:32.582Z,9.10
2019-05-19T04:30:02.078Z,9.28
2019-05-19T04:32:30.588Z,10.25
2019-05-19T04:35:00.105Z,10.20
2019-05-19T04:37:28.548Z,10.25
2019-05-19T04:39:56.969Z,10.32
2019-05-19T04:42:25.482Z,10.50
2019-05-19T04:44:53.953Z,10.90
2019-05-19T04:47:23.443Z,11.43
2019-05-19T04:49:51.920Z,11.48
2019-05-19T04:52:20.411Z,9.60
2019-05-19T04:54:49.167Z,10.10
2019-05-19T04:57:18.612Z,9.95
2019-05-19T04:59:47.150Z,9.23
2019-05-19T05:02:15.581Z,9.75
2019-05-19T05:04:44.025Z,9.70
2019-05-19T05:07:12.556Z,9.28
2019-05-19T05:09:41.003Z,9.73
2019-05-19T05:12:09.515Z,9.60
2019-05-19T05:14:40.021Z,9.53
2019-05-19T05:17:08.545Z,8.60
2019-05-19T05:19:37.011Z,9.35
2019-05-19T05:22:21.220Z,9.98
2019-05-19T05:24:36.665Z,8.73
2019-05-19T05:27:07.174Z,8.70
2019-05-19T05:29:42.775Z,8.85
2019-05-19T05:32:12.330Z,9.83
2019-05-19T05:34:40.872Z,9.10
2019-05-19T05:37:09.392Z,10.65
2019-05-19T05:39:37.796Z,10.20
2019-05-19T05:42:06.478Z,10.10
2019-05-19T05:44:35.647Z,20.27
2019-05-19T05:47:04.420Z,11.83
2019-05-19T05:49:44.989Z,10.85
2019-05-19T05:52:13.666Z,11.30
2019-05-19T05:54:42.179Z,10.43
2019-05-19T05:57:17.849Z,12.90
2019-05-19T05:59:46.558Z,12.28
2019-05-19T06:02:15.129Z,12.33
2019-05-19T06:04:43.829Z,13.10
2019-05-19T06:07:12.355Z,13.93
2019-05-19T06:09:40.857Z,13.65
2019-05-19T06:12:09.277Z,12.98
2019-05-19T06:14:37.727Z,13.68
2019-05-19T06:17:07.531Z,13.20
2019-05-19T06:19:36.538Z,12.73
2019-05-19T06:22:05.185Z,15.23
2019-05-19T06:24:33.979Z,14.00
2019-05-19T06:27:02.618Z,14.28
2019-05-19T06:29:31.277Z,15.58
2019-05-19T06:32:01.941Z,15.85
2019-05-19T06:34:30.566Z,14.95
2019-05-19T06:36:59.241Z,14.38
2019-05-19T06:39:27.679Z,15.08
2019-05-19T06:41:56.178Z,15.08
2019-05-19T06:44:24.669Z,13.90
2019-05-19T06:46:57.018Z,15.20
2019-05-19T06:49:24.868Z,16.17
2019-05-19T06:51:53.286Z,15.55
2019-05-19T06:54:22.762Z,15.38
2019-05-19T06:56:53.210Z,15.25
2019-05-19T06:59:21.677Z,15.50
2019-05-19T07:01:50.160Z,16.10
2019-05-19T07:04:19.048Z,16.35
2019-05-19T07:06:47.679Z,16.55
2019-05-19T07:09:16.084Z,15.83
2019-05-19T07:11:44.888Z,16.27
2019-05-19T07:14:13.467Z,16.10
2019-05-19T07:16:42.173Z,16.73
2019-05-19T07:19:10.930Z,16.23
2019-05-19T07:21:39.394Z,16.70
2019-05-19T07:24:08.704Z,15.25
2019-05-19T07:26:37.412Z,15.20
2019-05-19T07:29:05.974Z,17.40
2019-05-19T07:31:34.592Z,16.45
2019-05-19T07:34:03.220Z,17.30
2019-05-19T07:36:31.734Z,16.35
2019-05-19T07:39:01.230Z,16.12
2019-05-19T07:41:29.788Z,19.35
2019-05-19T07:43:58.228Z,15.68
2019-05-19T07:46:26.673Z,15.85
2019-05-19T07:48:55.169Z,17.95
2019-05-19T07:51:25.675Z,16.25
2019-05-19T07:53:54.159Z,15.23
2019-05-19T07:56:22.640Z,16.75
2019-05-19T07:58:52.159Z,15.30
2019-05-19T08:01:20.903Z,15.15
2019-05-19T08:03:50.352Z,15.50
2019-05-19T08:06:21.158Z,15.32
2019-05-19T08:08:49.650Z,14.63
2019-05-19T08:11:18.183Z,14.55
2019-05-19T08:13:48.729Z,14.15
2019-05-19T08:16:17.651Z,15.30
2019-05-19T08:18:46.167Z,15.32
2019-05-19T08:21:15.788Z,15.15
2019-05-19T08:23:59.222Z,13.22
2019-05-19T08:26:14.317Z,14.83
2019-05-19T08:28:42.748Z,14.75
2019-05-19T08:31:11.259Z,14.33
2019-05-19T08:33:39.779Z,14.15
2019-05-19T08:36:08.268Z,13.90
2019-05-19T08:38:36.929Z,13.08
2019-05-19T08:41:05.355Z,12.85
2019-05-19T08:43:33.846Z,12.78
2019-05-19T08:46:02.294Z,13.00
2019-05-19T08:48:34.305Z,13.53
2019-05-19T08:51:04.784Z,12.25
2019-05-19T08:53:33.269Z,12.33
2019-05-19T08:56:01.751Z,12.35
2019-05-19T08:58:30.535Z,12.93
2019-05-19T09:00:59.102Z,10.43
2019-05-19T09:03:27.511Z,10.00
2019-05-19T09:05:55.983Z,10.58
2019-05-19T09:08:24.554Z,10.32
2019-05-19T09:10:53.019Z,9.80
2019-05-19T09:13:21.602Z,9.50
2019-05-19T09:15:56.887Z,9.93
2019-05-19T09:18:31.694Z,9.90
2019-05-19T09:21:00.391Z,10.68
2019-05-19T09:23:30.949Z,9.70
2019-05-19T09:25:59.453Z,10.38
2019-05-19T09:28:28.301Z,10.35
2019-05-19T09:30:56.720Z,11.15
2019-05-19T09:33:25.242Z,9.88
2019-05-19T09:35:53.858Z,10.03
2019-05-19T09:38:22.370Z,8.98
2019-05-19T09:40:50.786Z,9.25
2019-05-19T09:43:20.552Z,8.73
2019-05-19T09:45:49.075Z,9.03
2019-05-19T09:48:17.534Z,9.08
2019-05-19T09:50:45.997Z,10.72
2019-05-19T09:53:14.490Z,10.40
2019-05-19T09:55:42.957Z,8.78
2019-05-19T09:58:15.815Z,9.28
2019-05-19T10:00:41.953Z,9.10
2019-05-19T10:03:10.450Z,9.43
2019-05-19T10:05:42.952Z,8.33
2019-05-19T10:08:12.108Z,8.38
2019-05-19T10:10:53.704Z,8.90
2019-05-19T10:13:22.332Z,9.43
2019-05-19T10:15:52.850Z,9.98
2019-05-19T10:18:21.540Z,9.73
2019-05-19T10:20:50.543Z,10.03
2019-05-19T10:23:18.631Z,9.35
2019-05-19T10:25:48.113Z,8.55
2019-05-19T10:28:16.571Z,8.18
2019-05-19T10:30:45.155Z,8.10
2019-05-19T10:33:14.038Z,9.03
2019-05-19T10:35:43.582Z,8.35
2019-05-19T10:38:12.360Z,7.75
2019-05-19T10:40:40.948Z,7.60
2019-05-19T10:43:11.304Z,8.53
2019-05-19T10:45:41.086Z,8.00
2019-05-19T10:48:11.548Z,7.75
2019-05-19T10:50:40.016Z,9.05
2019-05-19T10:53:08.895Z,7.95
2019-05-19T10:55:38.419Z,8.63
2019-05-19T10:58:08.188Z,7.92
2019-05-19T11:00:38.659Z,7.10
2019-05-19T11:03:07.114Z,7.58
2019-05-19T11:05:37.553Z,8.60
2019-05-19T11:08:06.029Z,8.38
2019-05-19T11:10:34.472Z,8.35
2019-05-19T11:13:03.205Z,8.25
2019-05-19T11:15:31.713Z,8.30
2019-05-19T11:18:00.474Z,8.28
2019-05-19T11:20:29.052Z,8.60
2019-05-19T11:22:58.060Z,9.30
2019-05-19T11:25:34.090Z,8.68
2019-05-19T11:27:55.474Z,8.40
2019-05-19T11:30:24.193Z,7.62
2019-05-19T11:32:53.616Z,8.85
2019-05-19T11:35:22.396Z,7.15
2019-05-19T11:37:50.904Z,8.10
2019-05-19T11:40:19.601Z,8.40
2019-05-19T11:42:48.384Z,8.83
2019-05-19T11:45:16.868Z,8.63
2019-05-19T11:47:45.653Z,7.08
2019-05-19T11:50:14.146Z,8.65
2019-05-19T11:52:45.101Z,8.05
2019-05-19T11:55:13.868Z,7.62
2019-05-19T11:57:42.790Z,8.58
2019-05-19T12:00:11.252Z,7.95
2019-05-19T12:02:39.737Z,7.62
2019-05-19T12:05:08.212Z,7.72
2019-05-19T12:07:36.994Z,7.55
2019-05-19T12:10:05.480Z,7.80
2019-05-19T12:12:35.201Z,7.97
2019-05-19T12:15:03.796Z,6.75
2019-05-19T12:17:38.211Z,7.22
2019-05-19T12:20:07.702Z,7.08
2019-05-19T12:22:38.150Z,7.20
2019-05-19T12:25:06.633Z,7.42
2019-05-19T12:27:35.427Z,7.08
2019-05-19T12:30:04.271Z,7.62
2019-05-19T12:32:32.824Z,8.30
2019-05-19T12:35:01.667Z,7.37
2019-05-19T12:37:30.168Z,7.17
2019-05-19T12:39:58.856Z,7.75
2019-05-19T12:42:27.338Z,7.42
2019-05-19T12:44:55.828Z,7.05
2019-05-19T12:47:24.299Z,7.42
2019-05-19T12:49:53.041Z,7.45
2019-05-19T12:52:21.564Z,6.87
2019-05-19T12:54:50.152Z,6.72
2019-05-19T12:57:21.186Z,6.65
2019-05-19T12:59:47.023Z,7.67
2019-05-19T13:02:16.527Z,7.25
2019-05-19T13:05:03.202Z,6.75
2019-05-19T13:07:13.486Z,5.95
2019-05-19T13:09:45.066Z,6.15
2019-05-19T13:12:14.328Z,6.37
2019-05-19T13:14:43.129Z,6.75
2019-05-19T13:17:12.649Z,6.40
2019-05-19T13:19:41.405Z,6.95
2019-05-19T13:22:12.161Z,6.45
2019-05-19T13:24:41.924Z,6.08
2019-05-19T13:27:11.396Z,6.37
2019-05-19T13:29:40.887Z,6.33
2019-05-19T13:32:17.554Z,6.45
2019-05-19T13:34:46.045Z,6.08
2019-05-19T13:37:15.075Z,6.30
2019-05-19T13:42:23.897Z,6.15
2019-05-19T13:44:52.761Z,6.12
2019-05-19T13:47:21.309Z,5.03
2019-05-19T13:49:52.212Z,5.20
2019-05-19T13:52:22.661Z,4.53
2019-05-19T13:54:51.340Z,4.20
2019-05-19T13:57:19.708Z,3.80
2019-05-19T13:59:51.374Z,5.72
2019-05-19T14:02:20.113Z,5.53
2019-05-19T14:04:54.272Z,4.50
2019-05-19T14:07:24.787Z,5.60
2019-05-19T14:09:53.976Z,5.87
2019-05-19T14:12:22.486Z,4.90
2019-05-19T14:14:53.691Z,3.85
2019-05-19T14:19:55.897Z,4.08
2019-05-19T14:22:24.369Z,4.35
2019-05-19T14:24:54.194Z,4.00
2019-05-19T14:27:30.428Z,4.10
2019-05-19T14:29:52.191Z,4.30
2019-05-19T14:32:20.939Z,3.85
2019-05-19T14:34:49.472Z,4.35
2019-05-19T14:37:19.970Z,4.35
2019-05-19T14:39:55.504Z,3.85
2019-05-19T14:42:45.478Z,4.60
2019-05-19T14:45:14.786Z,4.15
2019-05-19T14:47:44.242Z,4.70
2019-05-19T14:50:13.748Z,4.33
2019-05-19T14:52:42.220Z,4.65
2019-05-19T14:55:15.274Z,4.33
2019-05-19T14:57:45.598Z,4.80
2019-05-19T15:00:18.414Z,4.58
2019-05-19T15:02:53.652Z,4.12
2019-05-19T15:05:23.856Z,4.35
2019-05-19T15:07:53.275Z,5.67
2019-05-19T15:10:21.690Z,5.75
2019-05-19T15:12:50.152Z,8.25
2019-05-19T15:15:18.941Z,6.12
2019-05-19T15:17:47.428Z,5.67
2019-05-19T15:20:21.091Z,6.67
2019-05-19T15:22:49.604Z,5.97
2019-05-19T15:25:22.298Z,5.42
2019-05-19T15:28:00.681Z,6.30
2019-05-19T15:30:21.605Z,6.62
2019-05-19T15:32:50.093Z,6.33
2019-05-19T15:35:19.594Z,6.28
2019-05-19T15:37:53.912Z,6.72
2019-05-19T15:40:22.346Z,6.30
2019-05-19T15:42:50.828Z,7.47
2019-05-19T15:45:20.326Z,7.10
2019-05-19T15:47:54.845Z,7.12
2019-05-19T15:50:23.342Z,7.03
2019-05-19T15:52:51.794Z,6.62
2019-05-19T15:55:20.580Z,6.35
2019-05-19T15:57:49.057Z,6.97
2019-05-19T16:00:19.810Z,6.87
2019-05-19T16:05:17.081Z,6.12
2019-05-19T16:07:46.114Z,5.90
2019-05-19T16:10:15.552Z,6.28
2019-05-19T16:12:44.172Z,6.00
2019-05-19T16:15:12.957Z,6.35
2019-05-19T16:17:41.440Z,6.92
2019-05-19T16:20:12.022Z,7.00
2019-05-19T16:22:40.543Z,6.67
2019-05-19T16:25:09.047Z,7.30
2019-05-19T16:27:38.787Z,7.55
2019-05-19T16:30:11.033Z,7.00
2019-05-19T16:32:40.522Z,6.67
2019-05-19T16:35:10.073Z,6.97
2019-05-19T16:37:38.504Z,6.80
2019-05-19T16:40:10.170Z,7.08
2019-05-19T16:42:39.750Z,7.72
2019-05-19T16:45:09.206Z,6.60
2019-05-19T16:47:38.081Z,6.87
2019-05-19T16:50:08.629Z,6.50
2019-05-19T16:52:38.206Z,6.70
2019-05-19T16:55:19.712Z,7.05
2019-05-19T16:58:20.087Z,6.58
2019-05-19T17:00:43.810Z,5.62
2019-05-19T17:03:16.979Z,6.45
2019-05-19T17:05:48.412Z,6.80
2019-05-19T17:08:16.959Z,6.55
2019-05-19T17:10:45.407Z,7.55
2019-05-19T17:13:15.872Z,6.75
2019-05-19T17:15:45.384Z,6.87
2019-05-19T17:18:13.865Z,6.80
2019-05-19T17:20:43.652Z,6.45
2019-05-19T17:23:16.833Z,6.95
2019-05-19T17:25:45.333Z,6.12
2019-05-19T17:28:15.536Z,6.67
2019-05-19T17:30:45.054Z,6.20
2019-05-19T17:33:13.538Z,6.60
2019-05-19T17:35:45.393Z,6.55
2019-05-19T17:38:15.885Z,7.65
2019-05-19T17:40:44.470Z,7.00
2019-05-19T17:43:13.874Z,7.67
2019-05-19T17:45:43.345Z,7.33
2019-05-19T17:48:25.729Z,7.78
2019-05-19T17:50:40.670Z,7.85
2019-05-19T17:53:09.491Z,7.62
2019-05-19T17:55:38.000Z,7.37
2019-05-19T17:58:07.514Z,7.65
2019-05-19T18:00:36.751Z,6.85
2019-05-19T18:03:05.312Z,7.00
2019-05-19T18:05:33.780Z,6.55
2019-05-19T18:08:02.251Z,6.97
2019-05-19T18:10:31.044Z,7.35
2019-05-19T18:12:59.829Z,6.95
2019-05-19T18:15:28.323Z,7.97
2019-05-19T18:17:56.815Z,7.42
2019-05-19T18:20:25.302Z,7.80
2019-05-19T18:22:53.794Z,8.15
2019-05-19T18:25:22.321Z,8.00
2019-05-19T18:27:50.725Z,8.80
2019-05-19T18:30:19.464Z,8.58
2019-05-19T18:32:48.098Z,9.08
2019-05-19T18:35:16.577Z,8.73
2019-05-19T18:37:45.112Z,9.93
2019-05-19T18:40:21.511Z,9.65
2019-05-19T18:42:49.992Z,8.90
2019-05-19T18:45:18.774Z,8.25
2019-05-19T18:47:48.072Z,9.70
2019-05-19T18:50:16.446Z,9.30
2019-05-19T18:52:44.942Z,8.40
2019-05-19T18:55:13.411Z,8.98
2019-05-19T18:57:42.827Z,8.78
2019-05-19T19:00:11.298Z,8.50
2019-05-19T19:02:39.787Z,8.15
2019-05-19T19:05:08.262Z,9.20
2019-05-19T19:07:50.553Z,11.03
2019-05-19T19:10:19.378Z,13.40
2019-05-19T19:12:47.871Z,11.88
2019-05-19T19:15:16.725Z,10.28
2019-05-19T19:17:45.254Z,9.35
2019-05-19T19:20:13.705Z,11.53
2019-05-19T19:22:42.201Z,10.80
2019-05-19T19:25:10.926Z,11.12
2019-05-19T19:27:39.373Z,10.50
2019-05-19T19:30:08.198Z,10.90
2019-05-19T19:32:36.717Z,11.95
2019-05-19T19:35:05.523Z,12.03
2019-05-19T19:37:34.280Z,11.35
2019-05-19T19:40:02.838Z,9.78
2019-05-19T19:42:31.288Z,8.95
2019-05-19T19:44:59.784Z,10.18
2019-05-19T19:47:28.258Z,10.13
2019-05-19T19:49:56.745Z,10.82
2019-05-19T19:52:25.473Z,9.83
2019-05-19T19:54:53.928Z,9.95
2019-05-19T19:57:22.377Z,11.33
2019-05-19T19:59:50.906Z,11.38
2019-05-19T20:02:19.847Z,8.38
2019-05-19T20:04:48.597Z,8.28
2019-05-19T20:07:17.206Z,7.72
2019-05-19T20:09:45.611Z,7.60
2019-05-19T20:12:14.395Z,7.90
2019-05-19T20:14:42.881Z,8.58
2019-05-19T20:17:11.364Z,8.85
2019-05-19T20:19:39.868Z,8.08
2019-05-19T20:22:08.312Z,6.87
2019-05-19T20:24:37.402Z,6.85
2019-05-19T20:27:05.945Z,5.97
2019-05-19T20:29:36.475Z,5.80
2019-05-19T20:32:04.992Z,6.47
2019-05-19T20:34:33.389Z,5.42
2019-05-19T20:37:01.857Z,5.67
2019-05-19T20:39:30.391Z,5.45
2019-05-19T20:41:58.907Z,6.22
2019-05-19T20:44:27.404Z,7.83
2019-05-19T20:46:55.921Z,7.55
2019-05-19T20:49:24.658Z,6.70
2019-05-19T20:51:53.128Z,6.67
2019-05-19T20:54:21.631Z,6.35
2019-05-19T20:56:50.206Z,6.97
2019-05-19T20:59:18.695Z,6.67
2019-05-19T21:01:47.159Z,6.10
2019-05-19T21:04:15.921Z,7.00
2019-05-19T21:06:44.467Z,7.92
2019-05-19T21:09:13.981Z,8.15
2019-05-19T21:11:42.510Z,8.20
2019-05-19T21:14:11.073Z,8.85
2019-05-19T21:16:40.034Z,8.28
2019-05-19T21:19:08.898Z,9.13
2019-05-19T21:21:37.461Z,8.78
2019-05-19T21:24:06.040Z,7.95
2019-05-19T21:26:34.453Z,7.92
2019-05-19T21:29:03.102Z,8.95
2019-05-19T21:31:31.794Z,8.78
2019-05-19T21:34:00.524Z,8.65
2019-05-19T21:36:29.074Z,9.33
2019-05-19T21:38:57.780Z,9.28
2019-05-19T21:41:26.419Z,9.15
2019-05-19T21:43:54.916Z,8.88
2019-05-19T21:46:23.402Z,9.35
2019-05-19T21:48:51.845Z,9.78
2019-05-19T21:51:20.361Z,9.10
2019-05-19T21:53:48.817Z,9.05
2019-05-19T21:56:17.595Z,9.10
2019-05-19T21:58:46.084Z,8.63
2019-05-19T22:01:22.792Z,9.18
2019-05-19T22:03:44.369Z,8.88
2019-05-19T22:06:12.859Z,9.00
2019-05-19T22:08:41.564Z,8.33
2019-05-19T22:11:10.378Z,8.43
2019-05-19T22:13:39.089Z,8.58
2019-05-19T22:16:12.922Z,9.60
2019-05-19T22:18:36.629Z,8.73
2019-05-19T22:21:05.146Z,8.43
2019-05-19T22:23:34.607Z,8.43
2019-05-19T22:26:03.145Z,8.53
2019-05-19T22:28:31.563Z,8.25
2019-05-19T22:31:00.053Z,8.75
2019-05-19T22:33:30.059Z,8.70
2019-05-19T22:35:58.546Z,8.17
2019-05-19T22:38:27.327Z,8.83
2019-05-19T22:40:55.802Z,9.60
2019-05-19T22:43:24.268Z,8.98
2019-05-19T22:45:52.833Z,8.65
2019-05-19T22:48:21.940Z,9.90
2019-05-19T22:50:50.507Z,9.68
2019-05-19T22:53:19.091Z,8.43
2019-05-19T22:55:47.502Z,10.53
2019-05-19T22:58:15.973Z,10.20
2019-05-19T23:00:44.461Z,10.48
2019-05-19T23:03:12.923Z,11.35
2019-05-19T23:05:41.411Z,10.95
2019-05-19T23:08:09.881Z,10.85
2019-05-19T23:10:44.229Z,10.40
2019-05-19T23:13:12.759Z,11.90
2019-05-19T23:15:42.219Z,12.65
2019-05-19T23:18:10.718Z,13.13
2019-05-19T23:20:39.365Z,12.93
2019-05-19T23:23:08.798Z,13.30
2019-05-19T23:25:37.351Z,13.93
2019-05-19T23:28:06.276Z,13.95
2019-05-19T23:30:35.054Z,13.62
2019-05-19T23:33:04.583Z,13.72
2019-05-19T23:35:33.184Z,13.68
2019-05-19T23:38:02.020Z,13.10
2019-05-19T23:40:30.558Z,12.93
2019-05-19T23:42:59.321Z,13.50
2019-05-19T23:45:28.016Z,13.40
2019-05-19T23:47:56.439Z,13.15
2019-05-19T23:50:25.623Z,11.48
2019-05-19T23:52:54.113Z,11.38
2019-05-19T23:55:22.593Z,12.00
2019-05-19T23:57:51.079Z,12.85
